createdAt,value
2023-02-09T00:01:15.939Z,17.50
2023-02-09T00:03:18.476Z,18.97
2023-02-09T00:05:20.730Z,19.00
2023-02-09T00:07:22.703Z,19.17
2023-02-09T00:09:24.932Z,19.37
2023-02-09T00:11:48.400Z,18.93
2023-02-09T00:13:50.891Z,18.87
2023-02-09T00:15:55.990Z,17.53
2023-02-09T00:18:00.564Z,17.43
2023-02-09T00:20:05.148Z,17.70
2023-02-09T00:22:07.855Z,17.37
2023-02-09T00:24:11.738Z,16.90
2023-02-09T00:26:16.274Z,16.03
2023-02-09T00:28:20.036Z,14.80
2023-02-09T00:30:22.138Z,15.87
2023-02-09T00:32:24.352Z,15.97
2023-02-09T00:34:26.345Z,15.77
2023-02-09T00:36:32.739Z,16.13
2023-02-09T00:38:36.062Z,18.57
2023-02-09T00:40:39.730Z,18.53
2023-02-09T00:42:41.732Z,15.90
2023-02-09T00:44:43.937Z,15.13
2023-02-09T00:46:50.350Z,15.60
2023-02-09T00:48:52.611Z,16.03
2023-02-09T00:50:55.118Z,15.70
2023-02-09T00:52:57.571Z,14.90
2023-02-09T00:54:59.733Z,15.10
2023-02-09T00:57:05.480Z,15.07
2023-02-09T00:59:09.286Z,14.93
2023-02-09T01:01:15.487Z,13.93
2023-02-09T01:03:18.050Z,14.00
2023-02-09T01:05:20.443Z,15.13
2023-02-09T01:07:22.522Z,14.57
2023-02-09T01:09:25.533Z,14.60
2023-02-09T01:11:30.051Z,15.70
2023-02-09T01:13:32.370Z,15.77
2023-02-09T01:15:34.805Z,15.57
2023-02-09T01:17:37.561Z,14.87
2023-02-09T01:19:39.631Z,15.07
2023-02-09T01:21:42.286Z,15.77
2023-02-09T01:23:45.679Z,15.90
2023-02-09T01:25:50.686Z,15.60
2023-02-09T01:27:52.900Z,16.73
2023-02-09T01:29:55.174Z,15.77
2023-02-09T01:31:58.738Z,17.30
2023-02-09T01:34:03.403Z,17.17
2023-02-09T01:36:06.127Z,16.77
2023-02-09T01:38:11.006Z,17.70
2023-02-09T01:40:13.496Z,18.30
2023-02-09T01:42:20.686Z,22.50
2023-02-09T01:44:22.968Z,21.57
2023-02-09T01:46:28.084Z,19.73
2023-02-09T01:48:31.134Z,17.80
2023-02-09T01:50:39.544Z,20.20
2023-02-09T01:52:44.083Z,19.87
2023-02-09T01:54:54.915Z,19.27
2023-02-09T01:57:02.572Z,20.53
2023-02-09T01:59:04.806Z,20.37
2023-02-09T02:01:11.328Z,20.73
2023-02-09T02:03:18.093Z,21.77
2023-02-09T02:05:22.384Z,23.60
2023-02-09T02:07:40.550Z,32.10
2023-02-09T02:09:46.240Z,74.97
2023-02-09T02:11:49.200Z,94.00
2023-02-09T02:13:51.445Z,71.00
2023-02-09T02:16:10.062Z,45.23
2023-02-09T02:18:26.381Z,28.83
2023-02-09T02:20:46.959Z,32.13
2023-02-09T02:23:10.754Z,76.00
2023-02-09T02:25:43.153Z,53.07
2023-02-09T02:28:12.692Z,45.73
2023-02-09T02:30:44.382Z,33.30
2023-02-09T02:33:25.432Z,27.70
2023-02-09T02:35:37.908Z,25.57
2023-02-09T02:37:55.388Z,38.33
2023-02-09T02:39:57.631Z,40.63
2023-02-09T02:42:42.331Z,44.93
2023-02-09T02:44:58.323Z,57.13
2023-02-09T02:47:03.616Z,58.73
2023-02-09T02:49:15.271Z,75.03
2023-02-09T02:51:26.536Z,68.20
2023-02-09T02:53:33.587Z,68.67
2023-02-09T02:55:39.260Z,74.70
2023-02-09T02:57:46.522Z,81.67
2023-02-09T02:59:53.888Z,127.80
2023-02-09T03:02:01.200Z,87.70
2023-02-09T03:04:07.394Z,110.00
2023-02-09T03:06:11.871Z,60.03
2023-02-09T03:08:14.106Z,51.63
2023-02-09T03:10:29.792Z,57.30
2023-02-09T03:12:47.432Z,27.73
2023-02-09T03:15:23.799Z,20.20
2023-02-09T03:17:56.049Z,44.13
2023-02-09T03:20:05.952Z,60.50
2023-02-09T03:22:42.021Z,58.00
2023-02-09T03:24:54.584Z,44.97
2023-02-09T03:27:23.022Z,47.63
2023-02-09T03:29:26.959Z,42.87
2023-02-09T03:31:30.926Z,37.80
2023-02-09T03:33:35.995Z,27.20
2023-02-09T03:35:41.543Z,28.87
2023-02-09T03:37:44.761Z,26.43
2023-02-09T03:39:47.412Z,21.50
2023-02-09T03:41:49.837Z,21.40
2023-02-09T03:44:10.523Z,24.60
2023-02-09T03:46:12.748Z,32.93
2023-02-09T03:48:14.920Z,36.40
2023-02-09T03:50:17.065Z,38.90
2023-02-09T03:52:19.556Z,58.50
2023-02-09T03:54:22.474Z,75.40
2023-02-09T03:56:25.232Z,59.07
2023-02-09T03:58:27.479Z,39.73
2023-02-09T04:00:29.832Z,23.87
2023-02-09T04:02:31.943Z,22.67
2023-02-09T04:04:34.371Z,29.77
2023-02-09T04:06:37.305Z,45.67
2023-02-09T04:08:40.301Z,43.57
2023-02-09T04:10:45.723Z,36.90
2023-02-09T04:12:48.440Z,32.60
2023-02-09T04:14:50.510Z,26.27
2023-02-09T04:16:52.747Z,24.33
2023-02-09T04:18:55.100Z,25.17
2023-02-09T04:20:57.230Z,24.57
2023-02-09T04:22:59.630Z,22.80
2023-02-09T04:25:01.903Z,22.17
2023-02-09T04:27:06.098Z,22.90
2023-02-09T04:29:08.255Z,24.87
2023-02-09T04:31:10.578Z,47.67
2023-02-09T04:33:12.874Z,55.27
2023-02-09T04:35:15.094Z,53.83
2023-02-09T04:37:17.272Z,47.37
2023-02-09T04:39:19.948Z,47.53
2023-02-09T04:41:22.253Z,44.07
2023-02-09T04:43:24.280Z,41.47
2023-02-09T04:45:26.808Z,39.13
2023-02-09T04:47:29.396Z,25.40
2023-02-09T04:49:31.704Z,22.67
2023-02-09T04:51:33.833Z,25.10
2023-02-09T04:53:36.045Z,22.20
2023-02-09T04:55:39.979Z,24.93
2023-02-09T04:58:00.673Z,22.43
2023-02-09T05:00:02.778Z,22.10
2023-02-09T05:02:05.295Z,24.93
2023-02-09T05:04:07.429Z,21.90
2023-02-09T05:06:09.910Z,19.37
2023-02-09T05:08:12.048Z,18.00
2023-02-09T05:10:16.602Z,19.33
2023-02-09T05:12:18.590Z,22.50
2023-02-09T05:14:20.666Z,25.43
2023-02-09T05:16:22.878Z,23.77
2023-02-09T05:18:25.711Z,22.93
2023-02-09T05:20:31.119Z,25.33
2023-02-09T05:22:33.475Z,26.93
2023-02-09T05:24:35.579Z,28.47
2023-02-09T05:26:37.908Z,26.03
2023-02-09T05:28:40.402Z,26.27
2023-02-09T05:30:42.811Z,23.60
2023-02-09T05:32:44.836Z,22.40
2023-02-09T05:34:46.946Z,26.30
2023-02-09T05:36:51.999Z,34.00
2023-02-09T05:38:54.344Z,31.50
2023-02-09T05:40:56.414Z,28.73
2023-02-09T05:43:00.038Z,25.53
2023-02-09T05:45:03.326Z,29.33
2023-02-09T05:47:05.752Z,23.03
2023-02-09T05:49:07.831Z,23.97
2023-02-09T05:51:10.434Z,24.50
2023-02-09T05:53:14.371Z,18.43
2023-02-09T05:55:17.298Z,18.83
2023-02-09T05:57:19.379Z,49.50
2023-02-09T05:59:21.643Z,47.63
2023-02-09T06:01:23.736Z,41.57
2023-02-09T06:03:26.008Z,32.20
2023-02-09T06:05:28.218Z,35.03
2023-02-09T06:07:30.704Z,40.83
2023-02-09T06:09:33.303Z,41.93
2023-02-09T06:11:35.820Z,43.50
2023-02-09T06:13:37.801Z,41.83
2023-02-09T06:15:40.827Z,37.07
2023-02-09T06:17:43.032Z,46.63
2023-02-09T06:19:45.375Z,61.27
2023-02-09T06:21:47.564Z,48.50
2023-02-09T06:23:50.012Z,59.00
2023-02-09T06:25:53.424Z,53.57
2023-02-09T06:27:55.529Z,48.73
2023-02-09T06:29:57.656Z,36.50
2023-02-09T06:32:00.444Z,26.77
2023-02-09T06:34:05.957Z,30.03
2023-02-09T06:36:09.000Z,28.30
2023-02-09T06:38:11.174Z,26.90
2023-02-09T06:40:13.848Z,24.77
2023-02-09T06:42:16.206Z,23.87
2023-02-09T06:44:18.817Z,23.67
2023-02-09T06:46:21.362Z,22.30
2023-02-09T06:48:23.994Z,23.03
2023-02-09T06:50:29.116Z,27.53
2023-02-09T06:52:34.025Z,28.53
2023-02-09T06:54:36.277Z,28.73
2023-02-09T06:56:38.357Z,24.80
2023-02-09T06:58:41.660Z,22.07
2023-02-09T07:00:44.231Z,19.43
2023-02-09T07:02:46.780Z,19.50
2023-02-09T07:04:49.241Z,19.60
2023-02-09T07:06:51.601Z,19.20
2023-02-09T07:08:53.942Z,25.07
2023-02-09T07:10:56.156Z,28.17
2023-02-09T07:13:00.580Z,29.07
2023-02-09T07:15:06.169Z,27.40
2023-02-09T07:17:08.698Z,27.77
2023-02-09T07:19:11.797Z,32.87
2023-02-09T07:21:18.569Z,38.13
2023-02-09T07:23:21.127Z,37.13
2023-02-09T07:25:23.257Z,32.83
2023-02-09T07:27:25.629Z,32.10
2023-02-09T07:29:28.078Z,29.57
2023-02-09T07:31:31.123Z,30.17
2023-02-09T07:33:34.803Z,22.93
2023-02-09T07:35:41.067Z,27.97
2023-02-09T07:37:43.033Z,30.37
2023-02-09T07:39:45.531Z,24.20
2023-02-09T07:41:47.750Z,17.30
2023-02-09T07:43:50.434Z,16.43
2023-02-09T07:45:52.369Z,19.17
2023-02-09T07:47:54.593Z,17.57
2023-02-09T07:49:56.739Z,15.97
2023-02-09T07:51:59.253Z,16.13
2023-02-09T07:54:02.211Z,16.17
2023-02-09T07:56:09.150Z,18.67
2023-02-09T07:58:11.544Z,17.47
2023-02-09T08:00:14.441Z,18.10
2023-02-09T08:02:30.073Z,20.40
2023-02-09T08:04:32.543Z,23.03
2023-02-09T08:06:42.788Z,23.97
2023-02-09T08:08:47.041Z,23.03
2023-02-09T08:10:49.619Z,17.53
2023-02-09T08:13:02.667Z,15.83
2023-02-09T08:15:05.802Z,17.40
2023-02-09T08:17:24.378Z,20.17
2023-02-09T08:19:26.653Z,19.17
2023-02-09T08:21:31.228Z,20.37
2023-02-09T08:23:35.493Z,17.73
2023-02-09T08:25:39.306Z,17.57
2023-02-09T08:27:45.265Z,16.60
2023-02-09T08:29:49.013Z,14.57
2023-02-09T08:31:51.760Z,14.63
2023-02-09T08:33:54.619Z,16.37
2023-02-09T08:35:56.771Z,16.70
2023-02-09T08:38:03.306Z,15.63
2023-02-09T08:40:05.826Z,14.80
2023-02-09T08:42:08.140Z,12.60
2023-02-09T08:44:10.365Z,13.83
2023-02-09T08:46:15.000Z,12.47
2023-02-09T08:48:17.890Z,14.00
2023-02-09T08:50:19.985Z,13.10
2023-02-09T08:52:25.182Z,12.87
2023-02-09T08:54:27.326Z,12.23
2023-02-09T08:56:32.548Z,10.77
2023-02-09T08:58:35.086Z,10.57
2023-02-09T09:00:36.950Z,10.17
2023-02-09T09:02:38.804Z,9.57
2023-02-09T09:04:41.065Z,9.87
2023-02-09T09:06:43.282Z,7.87
2023-02-09T09:08:45.375Z,8.97
2023-02-09T09:10:47.302Z,7.70
2023-02-09T09:12:49.551Z,7.93
2023-02-09T09:14:52.100Z,7.40
2023-02-09T09:16:57.966Z,7.20
2023-02-09T09:19:00.298Z,7.97
2023-02-09T09:21:02.597Z,6.63
2023-02-09T09:23:04.764Z,6.83
2023-02-09T09:25:07.704Z,7.23
2023-02-09T09:27:11.232Z,6.70
2023-02-09T09:29:13.620Z,6.00
2023-02-09T09:31:17.682Z,6.63
2023-02-09T09:33:20.284Z,6.63
2023-02-09T09:35:22.775Z,6.40
2023-02-09T09:37:27.048Z,6.53
2023-02-09T09:39:29.319Z,6.53
2023-02-09T09:41:38.158Z,6.90
2023-02-09T09:43:41.731Z,6.07
2023-02-09T09:45:47.465Z,6.83
2023-02-09T09:47:50.093Z,7.30
2023-02-09T09:49:52.538Z,7.37
2023-02-09T09:52:21.348Z,16.40
2023-02-09T09:54:26.981Z,17.53
2023-02-09T09:56:31.972Z,15.87
2023-02-09T09:58:35.592Z,21.27
2023-02-09T10:00:42.534Z,37.17
2023-02-09T10:02:44.948Z,41.93
2023-02-09T10:04:48.544Z,46.33
2023-02-09T10:07:01.883Z,51.17
2023-02-09T10:09:12.390Z,34.70
2023-02-09T10:11:16.990Z,24.30
2023-02-09T10:13:26.069Z,23.53
2023-02-09T10:15:36.090Z,16.13
2023-02-09T10:17:38.371Z,17.50
2023-02-09T10:19:42.171Z,34.00
2023-02-09T10:21:44.419Z,33.37
2023-02-09T10:23:52.394Z,24.50
2023-02-09T10:26:09.771Z,25.80
2023-02-09T10:28:26.826Z,48.97
2023-02-09T10:30:30.454Z,70.77
2023-02-09T10:32:43.494Z,32.87
2023-02-09T10:34:54.571Z,29.90
2023-02-09T10:37:17.367Z,31.93
2023-02-09T10:39:31.657Z,21.97
2023-02-09T10:41:34.934Z,16.80
2023-02-09T10:43:37.134Z,17.50
2023-02-09T10:45:42.395Z,15.87
2023-02-09T10:48:00.508Z,17.23
2023-02-09T10:50:20.093Z,31.03
2023-02-09T10:52:25.575Z,22.17
2023-02-09T10:54:29.086Z,25.53
2023-02-09T10:56:45.872Z,32.53
2023-02-09T10:58:59.534Z,24.63
2023-02-09T11:01:10.190Z,26.73
2023-02-09T11:03:22.347Z,17.10
2023-02-09T11:05:35.139Z,24.57
2023-02-09T11:07:42.758Z,34.53
2023-02-09T11:09:52.670Z,32.47
2023-02-09T11:11:55.655Z,39.20
2023-02-09T11:13:59.611Z,34.40
2023-02-09T11:16:07.764Z,37.43
2023-02-09T11:18:22.720Z,31.43
2023-02-09T11:20:40.026Z,25.80
2023-02-09T11:22:51.446Z,22.57
2023-02-09T11:25:18.593Z,21.47
2023-02-09T11:27:57.713Z,38.63
2023-02-09T11:30:08.095Z,35.87
2023-02-09T11:32:38.392Z,44.30
2023-02-09T11:34:57.325Z,34.97
2023-02-09T11:36:59.221Z,32.37
2023-02-09T11:39:09.078Z,29.77
2023-02-09T11:41:34.127Z,27.90
2023-02-09T11:43:40.832Z,23.60
2023-02-09T11:45:51.447Z,21.53
2023-02-09T11:48:20.640Z,19.23
2023-02-09T11:50:47.537Z,18.93
2023-02-09T11:52:57.655Z,21.30
2023-02-09T11:55:09.189Z,21.70
2023-02-09T11:57:23.015Z,20.17
2023-02-09T11:59:36.918Z,25.37
2023-02-09T12:02:23.936Z,24.67
2023-02-09T12:04:44.161Z,23.00
2023-02-09T12:06:51.366Z,18.93
2023-02-09T12:09:09.213Z,16.53
2023-02-09T12:11:53.284Z,16.00
2023-02-09T12:13:58.531Z,15.07
2023-02-09T12:16:07.911Z,14.90
2023-02-09T12:18:21.211Z,14.83
2023-02-09T12:20:30.709Z,16.03
2023-02-09T12:22:35.802Z,17.77
2023-02-09T12:24:41.003Z,18.83
2023-02-09T12:26:44.397Z,18.17
2023-02-09T12:32:44.953Z,17.53
2023-02-09T12:34:53.409Z,16.53
2023-02-09T12:37:29.349Z,16.33
2023-02-09T12:39:35.185Z,16.40
2023-02-09T12:41:43.507Z,17.17
2023-02-09T12:43:46.435Z,16.20
2023-02-09T12:46:16.973Z,18.37
2023-02-09T12:48:19.917Z,18.17
2023-02-09T12:50:44.404Z,19.33
2023-02-09T12:53:40.691Z,19.80
2023-02-09T12:55:59.912Z,19.63
2023-02-09T12:58:01.907Z,21.30
2023-02-09T13:00:08.350Z,26.60
2023-02-09T13:02:32.134Z,20.07
2023-02-09T13:04:42.014Z,17.53
2023-02-09T13:06:49.225Z,16.10
2023-02-09T13:08:54.877Z,13.67
2023-02-09T13:11:19.373Z,12.83
2023-02-09T13:13:30.203Z,10.87
2023-02-09T13:15:44.388Z,11.60
2023-02-09T13:18:13.918Z,10.30
2023-02-09T13:20:28.246Z,11.13
2023-02-09T13:22:40.847Z,10.70
2023-02-09T13:24:56.945Z,11.97
2023-02-09T13:27:01.007Z,10.83
2023-02-09T13:29:22.119Z,11.37
2023-02-09T13:31:35.694Z,11.30
2023-02-09T13:33:47.753Z,10.93
2023-02-09T13:36:02.147Z,13.60
2023-02-09T13:38:17.846Z,14.03
2023-02-09T13:40:27.601Z,15.03
2023-02-09T13:42:36.241Z,16.23
2023-02-09T13:44:44.542Z,18.30
2023-02-09T13:46:55.326Z,16.33
2023-02-09T13:49:13.768Z,15.77
2023-02-09T13:51:22.740Z,14.63
2023-02-09T13:53:27.428Z,14.60
2023-02-09T13:55:30.376Z,14.17
2023-02-09T13:57:36.417Z,15.00
2023-02-09T13:59:42.480Z,14.17
2023-02-09T14:01:48.214Z,15.07
2023-02-09T14:03:58.543Z,14.33
2023-02-09T14:06:11.448Z,14.37
2023-02-09T14:08:16.173Z,13.67
2023-02-09T14:10:19.984Z,14.70
2023-02-09T14:12:55.860Z,15.03
2023-02-09T14:15:16.660Z,14.07
2023-02-09T14:17:30.750Z,15.30
2023-02-09T14:19:33.270Z,14.20
2023-02-09T14:21:37.689Z,14.47
2023-02-09T14:23:41.744Z,14.33
2023-02-09T14:26:01.937Z,14.40
2023-02-09T14:28:05.394Z,12.73
2023-02-09T14:30:37.055Z,13.27
2023-02-09T14:32:43.318Z,13.93
2023-02-09T14:34:45.691Z,15.50
2023-02-09T14:37:00.224Z,14.13
2023-02-09T14:39:17.299Z,14.63
2023-02-09T14:41:31.354Z,15.27
2023-02-09T14:43:33.682Z,16.57
2023-02-09T14:45:43.875Z,17.13
2023-02-09T14:47:46.227Z,17.20
2023-02-09T14:49:48.256Z,17.00
2023-02-09T14:52:01.446Z,15.73
2023-02-09T14:54:03.870Z,17.73
2023-02-09T14:56:06.604Z,19.07
2023-02-09T14:58:20.623Z,20.33
2023-02-09T15:00:28.689Z,20.00
2023-02-09T15:02:31.641Z,21.10
2023-02-09T15:04:34.226Z,20.60
2023-02-09T15:06:36.530Z,18.87
2023-02-09T15:08:39.487Z,22.40
2023-02-09T15:10:57.039Z,21.13
2023-02-09T15:12:59.810Z,21.00
2023-02-09T15:15:02.557Z,19.87
2023-02-09T15:17:17.250Z,20.27
2023-02-09T15:19:22.842Z,18.70
2023-02-09T15:21:25.536Z,18.07
2023-02-09T15:23:27.741Z,19.27
2023-02-09T15:25:30.106Z,19.97
2023-02-09T15:27:40.332Z,19.13
2023-02-09T15:29:45.010Z,18.63
2023-02-09T15:31:47.289Z,19.67
2023-02-09T15:33:49.454Z,20.40
2023-02-09T15:35:51.800Z,21.43
2023-02-09T15:38:00.019Z,21.20
2023-02-09T15:40:14.436Z,20.47
2023-02-09T15:42:37.167Z,21.50
2023-02-09T15:44:58.331Z,23.47
2023-02-09T15:47:21.696Z,23.63
2023-02-09T15:49:24.072Z,22.77
2023-02-09T15:51:31.341Z,23.73
2023-02-09T15:53:34.376Z,23.57
2023-02-09T15:55:37.615Z,23.67
2023-02-09T15:57:39.767Z,24.03
2023-02-09T15:59:42.728Z,23.20
2023-02-09T16:01:46.060Z,23.63
2023-02-09T16:03:48.343Z,23.20
2023-02-09T16:05:58.436Z,23.63
2023-02-09T16:08:00.626Z,24.60
2023-02-09T16:10:02.918Z,25.87
2023-02-09T16:12:10.080Z,27.40
2023-02-09T16:14:18.021Z,25.30
2023-02-09T16:16:20.479Z,27.50
2023-02-09T16:18:22.571Z,27.30
2023-02-09T16:20:26.555Z,28.30
2023-02-09T16:22:28.745Z,27.77
2023-02-09T16:24:36.322Z,28.90
2023-02-09T16:26:38.387Z,27.60
2023-02-09T16:28:40.688Z,29.77
2023-02-09T16:30:53.071Z,36.60
2023-02-09T16:32:56.325Z,41.93
2023-02-09T16:35:14.640Z,46.73
2023-02-09T16:37:27.173Z,45.97
2023-02-09T16:39:31.139Z,44.53
2023-02-09T16:41:49.826Z,36.93
2023-02-09T16:43:51.834Z,38.30
2023-02-09T16:46:03.443Z,34.30
2023-02-09T16:48:15.235Z,32.17
2023-02-09T16:50:25.473Z,28.47
2023-02-09T16:52:31.285Z,27.13
2023-02-09T16:54:40.830Z,26.90
2023-02-09T16:56:53.692Z,26.13
2023-02-09T16:58:56.495Z,26.90
2023-02-09T17:01:01.837Z,29.37
2023-02-09T17:03:20.227Z,30.63
2023-02-09T17:05:31.428Z,27.57
2023-02-09T17:07:48.709Z,26.10
2023-02-09T17:09:57.645Z,24.07
2023-02-09T17:12:02.283Z,23.73
2023-02-09T17:14:04.712Z,24.23
2023-02-09T17:16:07.735Z,23.67
2023-02-09T17:18:17.235Z,23.50
2023-02-09T17:20:22.726Z,23.67
2023-02-09T17:22:25.316Z,23.10
2023-02-09T17:24:27.511Z,24.40
2023-02-09T17:26:29.632Z,24.43
2023-02-09T17:28:32.294Z,23.23
2023-02-09T17:30:34.962Z,25.57
2023-02-09T17:32:38.544Z,28.07
2023-02-09T17:34:41.045Z,28.63
2023-02-09T17:36:43.706Z,25.73
2023-02-09T17:38:46.939Z,24.37
2023-02-09T17:40:53.601Z,24.70
2023-02-09T17:42:56.578Z,25.43
2023-02-09T17:44:59.005Z,24.30
2023-02-09T17:47:02.532Z,23.93
2023-02-09T17:49:05.331Z,25.07
2023-02-09T17:51:26.280Z,26.07
2023-02-09T17:53:33.426Z,27.57
2023-02-09T17:55:35.961Z,31.73
2023-02-09T17:57:38.049Z,30.57
2023-02-09T17:59:40.384Z,31.83
2023-02-09T18:01:45.902Z,31.93
2023-02-09T18:03:48.501Z,33.87
2023-02-09T18:06:01.938Z,33.67
2023-02-09T18:08:04.371Z,28.20
2023-02-09T18:10:07.546Z,31.67
2023-02-09T18:12:37.233Z,31.97
2023-02-09T18:14:39.749Z,31.53
2023-02-09T18:16:43.164Z,36.40
2023-02-09T18:18:47.043Z,39.57
2023-02-09T18:20:49.155Z,36.93
2023-02-09T18:22:51.972Z,38.13
2023-02-09T18:24:59.850Z,45.33
2023-02-09T18:27:02.381Z,45.00
2023-02-09T18:29:04.457Z,45.63
2023-02-09T18:31:06.833Z,40.23
2023-02-09T18:33:10.707Z,35.47
2023-02-09T18:35:35.749Z,33.60
2023-02-09T18:37:38.282Z,29.30
2023-02-09T18:39:46.341Z,28.33
2023-02-09T18:41:54.862Z,27.37
2023-02-09T18:43:57.670Z,24.63
2023-02-09T18:46:01.348Z,25.97
2023-02-09T18:48:04.151Z,26.23
2023-02-09T18:50:07.837Z,29.60
2023-02-09T18:52:10.565Z,28.23
2023-02-09T18:54:12.628Z,32.10
2023-02-09T18:56:19.840Z,32.53
2023-02-09T18:58:22.218Z,32.83
2023-02-09T19:00:25.117Z,37.70
2023-02-09T19:02:27.899Z,38.17
2023-02-09T19:04:32.263Z,35.03
2023-02-09T19:06:35.770Z,31.00
2023-02-09T19:08:42.439Z,24.07
2023-02-09T19:11:47.678Z,23.40
2023-02-09T19:14:08.920Z,22.87
2023-02-09T19:16:14.826Z,20.83
2023-02-09T19:18:17.130Z,21.53
2023-02-09T19:20:22.360Z,21.43
2023-02-09T19:22:25.471Z,25.57
2023-02-09T19:24:31.381Z,40.43
2023-02-09T19:26:36.625Z,40.37
2023-02-09T19:28:38.764Z,39.43
2023-02-09T19:30:44.696Z,31.90
2023-02-09T19:32:47.240Z,79.03
2023-02-09T19:34:50.957Z,92.63
2023-02-09T19:36:53.318Z,83.33
2023-02-09T19:38:58.141Z,59.17
2023-02-09T19:41:12.479Z,44.93
2023-02-09T19:43:14.945Z,41.00
2023-02-09T19:45:17.111Z,35.27
2023-02-09T19:47:26.484Z,32.37
2023-02-09T19:49:28.952Z,61.83
2023-02-09T19:51:31.267Z,68.70
2023-02-09T19:53:34.077Z,77.27
2023-02-09T19:55:36.514Z,87.07
2023-02-09T19:57:38.682Z,86.60
2023-02-09T19:59:41.026Z,75.13
2023-02-09T20:01:43.586Z,71.90
2023-02-09T20:03:46.435Z,68.63
2023-02-09T20:05:49.359Z,79.93
2023-02-09T20:07:55.559Z,75.53
2023-02-09T20:09:58.240Z,66.43
2023-02-09T20:12:00.450Z,64.33
2023-02-09T20:14:02.980Z,54.03
2023-02-09T20:16:13.221Z,66.40
2023-02-09T20:18:17.697Z,81.40
2023-02-09T20:20:20.119Z,83.70
2023-02-09T20:22:27.055Z,86.73
2023-02-09T20:24:29.679Z,68.87
2023-02-09T20:26:33.664Z,60.80
2023-02-09T20:28:36.372Z,55.07
2023-02-09T20:30:42.064Z,67.13
2023-02-09T20:32:44.226Z,69.33
2023-02-09T20:34:46.674Z,60.47
2023-02-09T20:36:49.185Z,55.30
2023-02-09T20:38:54.700Z,50.87
2023-02-09T20:40:57.304Z,51.00
2023-02-09T20:43:17.654Z,61.40
2023-02-09T20:45:38.279Z,59.70
2023-02-09T20:47:40.541Z,55.87
2023-02-09T20:49:42.884Z,57.40
2023-02-09T20:51:46.418Z,51.37
2023-02-09T20:53:48.617Z,58.00
2023-02-09T20:55:50.556Z,58.97
2023-02-09T20:57:53.248Z,52.30
2023-02-09T21:00:01.204Z,73.13
2023-02-09T21:02:03.623Z,71.03
2023-02-09T21:04:07.625Z,59.47
2023-02-09T21:06:10.045Z,86.10
2023-02-09T21:08:12.432Z,78.20
2023-02-09T21:10:15.929Z,65.03
2023-02-09T21:12:18.335Z,73.57
2023-02-09T21:14:27.557Z,72.37
2023-02-09T21:16:36.986Z,73.87
2023-02-09T21:18:39.746Z,65.13
2023-02-09T21:20:42.069Z,58.53
2023-02-09T21:22:44.329Z,59.97
2023-02-09T21:24:46.859Z,87.03
2023-02-09T21:26:49.134Z,85.40
2023-02-09T21:28:56.566Z,86.80
2023-02-09T21:30:59.299Z,75.90
2023-02-09T21:33:05.246Z,73.90
2023-02-09T21:35:10.539Z,71.97
2023-02-09T21:37:14.261Z,70.33
2023-02-09T21:39:16.994Z,82.77
2023-02-09T21:41:42.706Z,85.90
2023-02-09T21:43:44.825Z,69.10
2023-02-09T21:45:47.349Z,62.93
2023-02-09T21:47:49.503Z,56.10
2023-02-09T21:49:51.802Z,62.73
2023-02-09T21:51:54.081Z,63.93
2023-02-09T21:53:56.244Z,70.13
2023-02-09T21:55:59.299Z,64.00
2023-02-09T21:58:01.487Z,64.20
2023-02-09T22:00:07.678Z,54.93
2023-02-09T22:02:14.820Z,47.87
2023-02-09T22:04:18.729Z,42.70
2023-02-09T22:06:20.845Z,41.43
2023-02-09T22:08:27.091Z,44.03
2023-02-09T22:10:29.083Z,50.77
2023-02-09T22:12:31.365Z,40.13
2023-02-09T22:14:33.819Z,35.57
2023-02-09T22:16:36.064Z,36.23
2023-02-09T22:18:38.160Z,35.57
2023-02-09T22:20:42.102Z,43.63
2023-02-09T22:22:46.147Z,39.27
2023-02-09T22:24:50.526Z,41.80
2023-02-09T22:26:53.057Z,38.70
2023-02-09T22:28:55.403Z,38.27
2023-02-09T22:30:58.152Z,39.67
2023-02-09T22:33:01.697Z,42.47
2023-02-09T22:35:03.996Z,39.40
2023-02-09T22:37:06.139Z,36.37
2023-02-09T22:39:08.489Z,37.53
2023-02-09T22:41:21.803Z,39.93
2023-02-09T22:43:24.213Z,33.60
2023-02-09T22:45:26.362Z,32.43
2023-02-09T22:47:28.643Z,31.57
2023-02-09T22:49:30.849Z,35.50
2023-02-09T22:51:35.258Z,36.13
2023-02-09T22:53:37.894Z,46.67
2023-02-09T22:55:39.958Z,46.00
2023-02-09T22:57:42.072Z,48.77
2023-02-09T22:59:43.950Z,48.73
2023-02-09T23:01:46.201Z,44.40
2023-02-09T23:03:48.524Z,58.30
2023-02-09T23:05:51.251Z,61.83
2023-02-09T23:07:53.364Z,69.77
2023-02-09T23:09:55.606Z,74.13
2023-02-09T23:11:58.046Z,70.30
2023-02-09T23:14:11.429Z,58.10
2023-02-09T23:16:19.443Z,52.40
2023-02-09T23:18:21.782Z,48.13
2023-02-09T23:20:23.862Z,44.43
2023-02-09T23:22:26.080Z,42.50
2023-02-09T23:24:28.784Z,48.37
2023-02-09T23:26:31.230Z,46.47
2023-02-09T23:28:35.549Z,46.13
2023-02-09T23:30:38.113Z,44.00
2023-02-09T23:32:40.286Z,46.97
2023-02-09T23:34:45.512Z,46.90
2023-02-09T23:36:48.349Z,49.63
2023-02-09T23:39:08.667Z,43.13
2023-02-09T23:41:13.622Z,37.77
2023-02-09T23:43:15.790Z,39.67
2023-02-09T23:45:18.198Z,38.90
2023-02-09T23:47:20.422Z,35.57
2023-02-09T23:49:23.214Z,30.37
2023-02-09T23:51:29.911Z,29.70
2023-02-09T23:53:33.654Z,32.00
2023-02-09T23:55:38.472Z,39.03
2023-02-09T23:57:40.529Z,38.43
2023-02-09T23:59:42.589Z,32.50
